Time;durP1;ratioP1;P1;durP2;ratioP2;P2;SDS_P1;SDS_P2;PMS_P1;PMS_P2;Temp;Humidity;BMP_temperature;BMP_pressure;BME280_temperature;BME280_humidity;BME280_pressure;Samples;Min_cycle;Max_cycle;Signal;HPM_P1;HPM_P2
2023/06/09 00:02:21;;;;;;;8.00;3.50;;;16.30;99.90;;;;;;5089570;28;20207;-75
2023/06/09 00:04:49;;;;;;;7.00;3.63;;;16.30;99.90;;;;;;5091391;28;20206;-75
2023/06/09 00:07:16;;;;;;;10.17;3.80;;;16.20;99.90;;;;;;5109097;28;20227;-74
2023/06/09 00:09:47;;;;;;;11.10;3.90;;;16.10;99.90;;;;;;5107117;28;20603;-75
2023/06/09 00:12:14;;;;;;;9.00;3.40;;;16.10;99.90;;;;;;5106859;28;20223;-74
2023/06/09 00:14:41;;;;;;;13.40;3.90;;;16.10;99.90;;;;;;5105686;28;20245;-75
2023/06/09 00:17:09;;;;;;;10.27;3.70;;;16.00;99.90;;;;;;5105718;28;20532;-75
2023/06/09 00:19:37;;;;;;;9.10;4.20;;;16.00;99.90;;;;;;5109143;28;20585;-77
2023/06/09 00:22:05;;;;;;;10.67;3.30;;;16.00;99.90;;;;;;5105088;28;20282;-76
2023/06/09 00:24:32;;;;;;;14.97;4.50;;;15.90;99.90;;;;;;5105189;28;20568;-75
2023/06/09 00:26:58;;;;;;;7.00;3.10;;;15.80;99.90;;;;;;5105583;28;20249;-75
2023/06/09 00:29:25;;;;;;;12.20;3.10;;;15.80;99.90;;;;;;5104557;28;20221;-75
2023/06/09 00:31:52;;;;;;;11.20;3.10;;;15.70;99.90;;;;;;5112542;28;20291;-75
2023/06/09 00:34:19;;;;;;;13.57;3.90;;;15.70;99.90;;;;;;5091574;28;20283;-74
2023/06/09 00:36:47;;;;;;;12.77;3.70;;;15.60;99.90;;;;;;5106915;28;20257;-74
2023/06/09 00:39:15;;;;;;;10.07;3.77;;;15.60;99.90;;;;;;5107350;27;20682;-75
2023/06/09 00:41:42;;;;;;;7.70;3.47;;;15.70;99.90;;;;;;5100329;28;20206;-75
2023/06/09 00:44:09;;;;;;;10.87;3.60;;;15.60;99.90;;;;;;5104871;28;20264;-75
2023/06/09 00:46:36;;;;;;;11.43;3.47;;;15.60;99.90;;;;;;5101861;28;20229;-77
2023/06/09 00:49:03;;;;;;;9.90;3.47;;;15.60;99.90;;;;;;5103976;28;20204;-76
2023/06/09 00:51:32;;;;;;;7.60;3.90;;;15.50;99.90;;;;;;5107084;28;20252;-76
2023/06/09 00:53:59;;;;;;;9.80;4.00;;;15.50;99.90;;;;;;5106828;28;20253;-75
2023/06/09 00:56:29;;;;;;;12.73;4.10;;;15.50;99.90;;;;;;5099166;28;20204;-75
2023/06/09 00:58:56;;;;;;;10.03;3.57;;;15.40;99.90;;;;;;5107053;28;20207;-74
2023/06/09 01:01:23;;;;;;;7.63;3.33;;;15.40;99.90;;;;;;5096812;28;20258;-77
2023/06/09 01:03:51;;;;;;;7.47;3.30;;;15.40;99.90;;;;;;5102225;28;20192;-76
2023/06/09 01:06:30;;;;;;;10.77;3.67;;;15.30;99.90;;;;;;5104277;28;20204;-76
2023/06/09 01:09:10;;;;;;;10.47;3.57;;;15.40;99.90;;;;;;5108064;28;20207;-75
2023/06/09 01:11:50;;;;;;;7.50;3.70;;;15.20;99.90;;;;;;5100957;28;20707;-77
2023/06/09 01:14:44;;;;;;;12.53;3.90;;;15.20;99.90;;;;;;5096300;28;20214;-76
2023/06/09 01:17:18;;;;;;;9.07;3.30;;;15.20;99.90;;;;;;5097621;28;20292;-76
2023/06/09 01:19:54;;;;;;;7.23;3.40;;;15.20;99.90;;;;;;5096719;28;20211;-76
2023/06/09 01:22:47;;;;;;;8.27;3.70;;;15.10;99.90;;;;;;5099810;28;20208;-76
2023/06/09 01:25:20;;;;;;;11.53;3.63;;;15.00;99.90;;;;;;5089614;28;20216;-77
2023/06/09 01:27:50;;;;;;;7.17;3.80;;;15.00;99.90;;;;;;5081620;28;20244;-74
2023/06/09 01:30:18;;;;;;;11.30;4.47;;;15.00;99.90;;;;;;5099500;28;20204;-75
2023/06/09 01:32:45;;;;;;;9.10;3.37;;;14.90;99.90;;;;;;5103256;28;20223;-75
2023/06/09 01:35:13;;;;;;;10.07;3.90;;;14.90;99.90;;;;;;5103597;28;20265;-75
2023/06/09 01:37:40;;;;;;;12.83;3.87;;;14.90;99.90;;;;;;5101870;28;20276;-76
2023/06/09 01:40:08;;;;;;;12.80;4.67;;;14.90;99.90;;;;;;5096073;28;20251;-77
2023/06/09 01:42:35;;;;;;;12.27;4.63;;;14.80;99.90;;;;;;5101664;28;20235;-75
2023/06/09 01:45:02;;;;;;;9.50;4.03;;;14.80;99.90;;;;;;5095770;28;20477;-77
2023/06/09 01:47:29;;;;;;;13.23;3.90;;;14.80;99.90;;;;;;5102119;28;20746;-76
2023/06/09 01:50:13;;;;;;;10.63;3.77;;;14.80;99.90;;;;;;5105657;28;20199;-77
2023/06/09 01:53:06;;;;;;;11.00;4.57;;;14.70;99.90;;;;;;5105206;28;20211;-75
2023/06/09 01:55:38;;;;;;;10.53;3.93;;;14.70;99.90;;;;;;5084500;28;20203;-75
2023/06/09 01:58:12;;;;;;;9.63;4.13;;;14.70;99.90;;;;;;5117009;28;20200;-76
2023/06/09 02:00:42;;;;;;;8.73;4.30;;;14.70;99.90;;;;;;5078306;28;20701;-76
2023/06/09 02:03:11;;;;;;;13.40;4.73;;;14.60;99.90;;;;;;5102556;28;20200;-75
2023/06/09 02:05:40;;;;;;;8.80;4.33;;;14.60;99.90;;;;;;5105390;28;20204;-75
2023/06/09 02:08:08;;;;;;;11.23;4.07;;;14.50;99.90;;;;;;5104511;28;20223;-75
2023/06/09 02:10:36;;;;;;;7.53;3.63;;;14.50;99.90;;;;;;5103072;28;20199;-75
2023/06/09 02:13:16;;;;;;;10.40;3.90;;;14.50;99.90;;;;;;5096389;28;20289;-74
2023/06/09 02:15:44;;;;;;;9.00;3.93;;;14.40;99.90;;;;;;5099540;28;20241;-75
2023/06/09 02:18:12;;;;;;;13.77;4.27;;;14.40;99.90;;;;;;5102407;28;20222;-76
2023/06/09 02:20:40;;;;;;;10.97;4.33;;;14.30;99.90;;;;;;5102344;28;20293;-75
2023/06/09 02:23:07;;;;;;;14.80;4.73;;;14.30;99.90;;;;;;5102118;28;20195;-77
2023/06/09 02:25:34;;;;;;;16.60;4.60;;;14.30;99.90;;;;;;5100507;28;20218;-76
2023/06/09 02:28:03;;;;;;;13.93;4.60;;;14.20;99.90;;;;;;5082164;28;20297;-76
2023/06/09 02:30:30;;;;;;;11.07;4.77;;;14.20;99.90;;;;;;5100794;28;20222;-74
2023/06/09 02:33:00;;;;;;;14.33;4.77;;;14.20;99.90;;;;;;5095108;28;20568;-77
2023/06/09 02:35:29;;;;;;;9.47;4.37;;;14.20;99.90;;;;;;5119796;27;20261;-74
2023/06/09 02:37:57;;;;;;;13.37;4.80;;;14.30;99.90;;;;;;5082533;28;20529;-75
2023/06/09 02:40:27;;;;;;;9.97;4.00;;;14.30;99.90;;;;;;5100923;28;20196;-75
2023/06/09 02:42:54;;;;;;;10.50;4.67;;;14.10;99.90;;;;;;5098514;28;20268;-76
2023/06/09 02:45:21;;;;;;;7.07;4.07;;;14.10;99.90;;;;;;5098425;28;20267;-75
2023/06/09 02:47:48;;;;;;;9.43;4.40;;;14.10;99.90;;;;;;5098938;28;20215;-76
2023/06/09 02:50:15;;;;;;;11.10;4.33;;;14.00;99.90;;;;;;5095887;28;20196;-75
2023/06/09 02:52:42;;;;;;;14.77;4.40;;;14.00;99.90;;;;;;5104976;28;20199;-76
2023/06/09 02:55:11;;;;;;;12.20;4.60;;;14.00;99.90;;;;;;5083841;28;20292;-76
2023/06/09 02:57:38;;;;;;;8.97;4.20;;;13.90;99.90;;;;;;5101881;28;20227;-78
2023/06/09 03:00:07;;;;;;;15.43;4.80;;;13.90;99.90;;;;;;5099288;28;20893;-75
2023/06/09 03:02:34;;;;;;;12.27;4.50;;;13.90;99.90;;;;;;5085086;28;20216;-76
2023/06/09 03:05:01;;;;;;;9.60;4.40;;;14.00;99.90;;;;;;5100925;28;20203;-75
2023/06/09 03:07:28;;;;;;;10.13;4.30;;;13.90;99.90;;;;;;5103681;28;20226;-75
2023/06/09 03:09:55;;;;;;;14.40;5.43;;;13.90;99.90;;;;;;5098597;28;20215;-75
2023/06/09 03:12:22;;;;;;;13.83;4.60;;;13.80;99.90;;;;;;5102258;28;20239;-75
2023/06/09 03:14:49;;;;;;;10.93;4.10;;;13.80;99.90;;;;;;5112920;27;20669;-76
2023/06/09 03:17:17;;;;;;;14.67;4.60;;;13.70;99.90;;;;;;5097156;28;20277;-75
2023/06/09 03:19:44;;;;;;;12.47;4.50;;;13.80;99.90;;;;;;5095670;28;20215;-76
2023/06/09 03:22:11;;;;;;;13.67;5.50;;;13.80;99.90;;;;;;5112086;27;20664;-76
2023/06/09 03:24:39;;;;;;;9.30;4.50;;;13.80;99.90;;;;;;5107562;28;20202;-76
2023/06/09 03:27:05;;;;;;;9.77;4.47;;;13.80;99.90;;;;;;5077028;28;20222;-75
2023/06/09 03:29:32;;;;;;;13.13;4.70;;;13.80;99.90;;;;;;5102514;28;20202;-75
2023/06/09 03:31:59;;;;;;;12.90;4.70;;;13.80;99.90;;;;;;5100818;28;20224;-75
2023/06/09 03:34:26;;;;;;;15.30;5.97;;;13.80;99.90;;;;;;5099794;28;20242;-75
2023/06/09 03:36:52;;;;;;;12.27;5.10;;;13.70;99.90;;;;;;5097318;28;20208;-76
2023/06/09 03:39:19;;;;;;;12.60;4.70;;;13.80;99.90;;;;;;5087003;28;20197;-75
2023/06/09 03:41:46;;;;;;;9.50;4.60;;;13.80;99.90;;;;;;5096178;28;20214;-76
2023/06/09 03:44:13;;;;;;;11.17;4.70;;;13.80;99.90;;;;;;5095585;28;20200;-75
2023/06/09 03:46:40;;;;;;;11.57;4.73;;;13.80;99.90;;;;;;5102800;28;20615;-77
2023/06/09 03:49:06;;;;;;;14.50;4.70;;;13.80;99.90;;;;;;5098773;28;20227;-77
2023/06/09 03:51:33;;;;;;;12.37;5.13;;;13.80;99.90;;;;;;5101190;28;20191;-76
2023/06/09 03:54:00;;;;;;;8.63;5.30;;;13.80;99.90;;;;;;5101599;28;20204;-75
2023/06/09 03:56:27;;;;;;;11.10;5.27;;;13.80;99.90;;;;;;5104030;28;20198;-77
2023/06/09 03:58:54;;;;;;;11.60;4.87;;;13.80;99.90;;;;;;5093244;28;20207;-76
2023/06/09 04:01:21;;;;;;;11.07;4.90;;;13.90;99.90;;;;;;5081935;28;20283;-75
2023/06/09 04:03:48;;;;;;;15.63;5.57;;;13.90;99.90;;;;;;5077082;28;20196;-76
2023/06/09 04:06:15;;;;;;;15.70;5.53;;;14.00;99.90;;;;;;5099853;28;20624;-77
2023/06/09 04:08:44;;;;;;;16.10;5.17;;;13.90;99.90;;;;;;5104020;28;20215;-75
2023/06/09 04:11:11;;;;;;;12.17;6.07;;;14.00;99.90;;;;;;5105892;28;20652;-78
2023/06/09 04:13:38;;;;;;;13.97;5.30;;;14.00;99.90;;;;;;5100149;28;20203;-76
2023/06/09 04:16:05;;;;;;;17.13;5.60;;;14.10;99.90;;;;;;5078971;28;20294;-75
2023/06/09 04:18:32;;;;;;;17.23;5.83;;;14.20;99.90;;;;;;5095320;28;20557;-77
2023/06/09 04:20:58;;;;;;;18.37;5.77;;;14.20;99.90;;;;;;5100562;28;20200;-75
2023/06/09 04:23:28;;;;;;;13.63;4.90;;;14.20;99.90;;;;;;5094863;28;20207;-76
2023/06/09 04:25:55;;;;;;;11.40;5.63;;;14.20;99.90;;;;;;5098749;28;20297;-75
2023/06/09 04:28:22;;;;;;;15.23;4.73;;;14.40;99.90;;;;;;5097668;28;20705;-75
2023/06/09 04:30:50;;;;;;;16.83;6.00;;;14.30;99.90;;;;;;5095142;28;20204;-75
2023/06/09 04:33:18;;;;;;;12.03;6.00;;;14.30;99.90;;;;;;5098661;28;20214;-75
2023/06/09 04:35:46;;;;;;;12.97;4.73;;;14.50;99.90;;;;;;5096532;28;20203;-75
2023/06/09 04:38:14;;;;;;;18.20;6.70;;;14.30;99.90;;;;;;5103091;28;20686;-75
2023/06/09 04:40:41;;;;;;;17.60;5.67;;;14.40;99.90;;;;;;5085617;28;20200;-76
2023/06/09 04:43:07;;;;;;;13.87;5.40;;;14.40;99.90;;;;;;5095762;28;20207;-77
2023/06/09 04:45:35;;;;;;;19.27;6.07;;;14.40;99.90;;;;;;5096652;28;20660;-75
2023/06/09 04:48:02;;;;;;;13.00;5.40;;;14.50;99.90;;;;;;5104698;28;20228;-77
2023/06/09 04:50:32;;;;;;;12.73;5.67;;;14.50;99.90;;;;;;5097716;28;20207;-75
2023/06/09 04:53:03;;;;;;;13.40;5.40;;;14.60;99.90;;;;;;5104503;28;20607;-76
2023/06/09 04:55:30;;;;;;;18.43;5.67;;;14.60;99.90;;;;;;5102312;28;20303;-75
2023/06/09 04:57:57;;;;;;;17.20;6.03;;;14.70;99.90;;;;;;5107960;28;20193;-76
2023/06/09 05:00:28;;;;;;;13.13;5.47;;;14.80;99.90;;;;;;5106101;28;20199;-75
2023/06/09 05:02:59;;;;;;;13.83;5.53;;;14.70;99.90;;;;;;5100728;28;20219;-76
2023/06/09 05:05:26;;;;;;;12.73;5.50;;;14.70;99.90;;;;;;5105936;28;20203;-76
2023/06/09 05:07:53;;;;;;;12.43;5.47;;;15.00;99.90;;;;;;5104324;28;20247;-75
2023/06/09 05:10:21;;;;;;;18.33;6.17;;;14.80;99.90;;;;;;5103998;28;20195;-76
2023/06/09 05:12:48;;;;;;;12.80;6.10;;;15.10;99.90;;;;;;5108868;28;20241;-75
2023/06/09 05:15:16;;;;;;;22.90;6.53;;;15.40;99.90;;;;;;5103536;28;20270;-74
2023/06/09 05:17:44;;;;;;;10.00;5.70;;;15.00;99.90;;;;;;5105147;28;20576;-76
2023/06/09 05:20:11;;;;;;;15.83;6.13;;;15.10;99.90;;;;;;5100729;28;20208;-75
2023/06/09 05:22:38;;;;;;;13.73;6.67;;;15.20;99.90;;;;;;5102060;28;20203;-76
2023/06/09 05:25:08;;;;;;;18.07;6.43;;;15.30;99.90;;;;;;5097945;28;20222;-76
2023/06/09 05:27:36;;;;;;;12.33;5.73;;;15.70;99.90;;;;;;5101440;28;20195;-79
2023/06/09 05:30:03;;;;;;;14.65;6.43;;;16.50;99.90;;;;;;5100357;28;20212;-77
2023/06/09 05:32:31;;;;;;;16.15;6.25;;;17.30;99.90;;;;;;5100529;28;20219;-76
2023/06/09 05:34:58;;;;;;;16.83;6.78;;;18.20;99.90;;;;;;5106234;28;20309;-77
2023/06/09 05:37:25;;;;;;;16.42;5.63;;;19.10;99.90;;;;;;5083885;28;20211;-77
2023/06/09 05:39:53;;;;;;;16.02;6.07;;;19.90;99.90;;;;;;5081937;28;20195;-78
2023/06/09 05:42:19;;;;;;;14.00;5.95;;;20.70;99.90;;;;;;5104303;28;20557;-77
2023/06/09 05:44:46;;;;;;;15.05;6.18;;;21.40;99.90;;;;;;5093533;28;20208;-77
2023/06/09 05:47:13;;;;;;;17.02;6.13;;;21.80;99.90;;;;;;5079223;28;20738;-76
2023/06/09 05:49:40;;;;;;;9.43;5.60;;;22.20;99.90;;;;;;5087590;28;20212;-77
2023/06/09 05:52:07;;;;;;;11.07;5.75;;;22.50;99.90;;;;;;5084491;28;20216;-77
2023/06/09 05:54:34;;;;;;;11.60;5.75;;;22.80;99.90;;;;;;5088462;28;20208;-76
2023/06/09 05:57:04;;;;;;;13.85;5.80;;;23.20;99.90;;;;;;5081795;28;20218;-77
2023/06/09 05:59:34;;;;;;;11.68;5.93;;;23.80;99.90;;;;;;5078308;28;20286;-77
2023/06/09 06:02:01;;;;;;;12.90;5.47;;;24.10;99.90;;;;;;5081403;28;20220;-76
2023/06/09 06:04:28;;;;;;;12.95;5.32;;;24.30;99.90;;;;;;5080108;28;20250;-76
2023/06/09 06:06:57;;;;;;;14.50;6.82;;;24.60;99.90;;;;;;5082235;28;20196;-75
2023/06/09 06:09:24;;;;;;;13.05;5.88;;;24.90;99.90;;;;;;5082803;28;20231;-78
2023/06/09 06:11:51;;;;;;;12.80;6.25;;;25.40;99.90;;;;;;5079236;28;20231;-75
2023/06/09 06:14:19;;;;;;;17.10;6.53;;;25.80;99.90;;;;;;5088272;28;20204;-77
2023/06/09 06:16:46;;;;;;;11.55;6.43;;;26.10;99.90;;;;;;5084545;28;20213;-77
2023/06/09 06:19:13;;;;;;;15.13;6.72;;;26.20;99.90;;;;;;5076901;28;20204;-77
2023/06/09 06:21:43;;;;;;;14.00;5.60;;;26.40;99.90;;;;;;5086528;28;20207;-77
2023/06/09 06:24:10;;;;;;;13.52;6.47;;;26.60;99.90;;;;;;5081738;28;20273;-75
2023/06/09 06:26:37;;;;;;;11.68;6.38;;;26.80;99.90;;;;;;5089178;28;20297;-78
2023/06/09 06:29:04;;;;;;;11.30;6.32;;;26.80;99.90;;;;;;5082097;28;20203;-77
2023/06/09 06:31:31;;;;;;;15.05;6.43;;;26.90;99.90;;;;;;5081013;28;20274;-78
2023/06/09 06:33:58;;;;;;;15.57;6.78;;;27.00;99.90;;;;;;5082995;28;20204;-78
2023/06/09 06:36:26;;;;;;;18.77;7.40;;;26.90;99.90;;;;;;5084257;28;20238;-78
2023/06/09 06:38:53;;;;;;;13.73;7.05;;;27.10;99.90;;;;;;5081199;28;20258;-78
2023/06/09 06:41:20;;;;;;;10.05;5.68;;;27.20;99.90;;;;;;5059534;28;20203;-77
2023/06/09 06:43:49;;;;;;;11.45;6.82;;;27.40;99.90;;;;;;5075059;28;20571;-76
2023/06/09 06:46:18;;;;;;;11.07;6.35;;;27.80;99.90;;;;;;5082856;28;20752;-76
2023/06/09 06:48:44;;;;;;;13.73;6.20;;;28.10;99.90;;;;;;5082334;28;20270;-75
2023/06/09 06:51:12;;;;;;;11.80;6.32;;;27.90;99.90;;;;;;5083379;28;20581;-77
2023/06/09 06:53:39;;;;;;;14.55;6.93;;;27.90;99.90;;;;;;5075245;28;20192;-76
2023/06/09 06:56:06;;;;;;;12.73;6.30;;;27.90;99.90;;;;;;5078594;28;20261;-76
2023/06/09 06:58:33;;;;;;;15.35;6.57;;;27.90;99.90;;;;;;5081895;28;20222;-76
2023/06/09 07:01:00;;;;;;;11.75;6.32;;;28.10;99.90;;;;;;5077770;28;20220;-75
2023/06/09 07:03:27;;;;;;;13.23;6.10;;;28.30;99.90;;;;;;5082650;28;20207;-77
2023/06/09 07:05:54;;;;;;;13.38;6.65;;;28.30;99.90;;;;;;5087856;28;20218;-77
2023/06/09 07:08:22;;;;;;;13.07;5.88;;;28.20;99.90;;;;;;5086084;28;20254;-77
2023/06/09 07:10:48;;;;;;;11.88;6.25;;;28.20;99.90;;;;;;5079246;28;20195;-77
2023/06/09 07:13:16;;;;;;;11.80;6.53;;;28.40;99.90;;;;;;5076711;28;20223;-75
2023/06/09 07:15:42;;;;;;;13.95;7.18;;;28.40;99.90;;;;;;5079999;28;20201;-78
2023/06/09 07:18:11;;;;;;;12.13;6.35;;;28.40;99.90;;;;;;5076986;28;20197;-75
2023/06/09 07:20:37;;;;;;;15.00;7.65;;;28.70;99.90;;;;;;5076771;28;20227;-76
2023/06/09 07:23:04;;;;;;;13.00;6.97;;;28.80;99.90;;;;;;5084754;28;20204;-76
2023/06/09 07:25:31;;;;;;;13.18;7.20;;;29.00;99.90;;;;;;5077198;28;20212;-76
2023/06/09 07:27:58;;;;;;;14.05;7.60;;;29.10;99.90;;;;;;5079215;28;20700;-75
2023/06/09 07:30:25;;;;;;;11.02;7.10;;;29.30;99.90;;;;;;5088120;28;20635;-76
2023/06/09 07:32:52;;;;;;;13.30;7.10;;;29.20;99.90;;;;;;5095676;28;20211;-77
2023/06/09 07:35:20;;;;;;;15.38;7.32;;;29.10;99.90;;;;;;5091360;28;20207;-75
2023/06/09 07:37:48;;;;;;;11.57;7.00;;;29.10;99.90;;;;;;5087120;28;20199;-74
2023/06/09 07:40:15;;;;;;;10.88;6.65;;;28.90;99.90;;;;;;5092144;28;20184;-76
2023/06/09 07:42:47;;;;;;;12.88;6.80;;;28.90;99.90;;;;;;5090350;28;20924;-76
2023/06/09 07:45:14;;;;;;;10.75;7.13;;;29.00;99.90;;;;;;5088023;28;20248;-76
2023/06/09 07:47:41;;;;;;;13.13;7.22;;;29.10;99.90;;;;;;5096832;28;20215;-77
2023/06/09 07:50:08;;;;;;;11.50;7.68;;;29.10;99.90;;;;;;5089701;28;20219;-76
2023/06/09 07:52:39;;;;;;;11.45;7.18;;;29.20;99.90;;;;;;5082769;28;20206;-77
2023/06/09 07:55:06;;;;;;;11.45;7.05;;;29.40;99.90;;;;;;5083205;28;20211;-79
2023/06/09 07:57:40;;;;;;;13.40;6.95;;;29.50;99.90;;;;;;5089772;28;20216;-76
2023/06/09 08:00:08;;;;;;;14.73;7.43;;;29.60;99.90;;;;;;5083820;28;20207;-77
2023/06/09 08:02:40;;;;;;;12.20;7.10;;;29.70;99.90;;;;;;5082672;28;20227;-76
2023/06/09 08:05:08;;;;;;;15.02;8.43;;;29.80;99.80;;;;;;5072670;28;20302;-75
2023/06/09 08:07:36;;;;;;;13.20;7.30;;;29.60;99.30;;;;;;5083048;28;20805;-77
2023/06/09 08:10:03;;;;;;;9.60;7.45;;;29.70;99.10;;;;;;5087291;28;20254;-77
2023/06/09 08:12:31;;;;;;;11.73;7.53;;;29.60;99.00;;;;;;5073313;28;20228;-78
2023/06/09 08:14:58;;;;;;;12.30;7.25;;;29.00;99.10;;;;;;5063594;28;20215;-76
2023/06/09 08:17:25;;;;;;;10.93;7.65;;;28.70;99.80;;;;;;5061504;28;20703;-77
2023/06/09 08:19:52;;;;;;;10.63;7.85;;;28.60;99.90;;;;;;5064327;28;20212;-75
2023/06/09 08:22:18;;;;;;;11.65;7.43;;;28.70;99.90;;;;;;5066310;28;20193;-77
2023/06/09 08:24:46;;;;;;;14.77;8.35;;;28.80;99.90;;;;;;5060928;28;20197;-76
2023/06/09 08:27:13;;;;;;;10.77;7.38;;;29.00;99.90;;;;;;5062786;28;20201;-77
2023/06/09 08:29:40;;;;;;;13.55;8.15;;;29.20;99.90;;;;;;5068537;28;20224;-75
2023/06/09 08:32:07;;;;;;;13.13;7.95;;;29.60;99.90;;;;;;5071492;28;20684;-74
2023/06/09 08:34:34;;;;;;;10.95;7.82;;;29.50;99.30;;;;;;5066132;28;20215;-77
2023/06/09 08:37:01;;;;;;;13.07;8.07;;;29.50;99.60;;;;;;5066230;28;20199;-76
2023/06/09 08:39:28;;;;;;;11.93;7.65;;;29.60;99.50;;;;;;5062080;28;20246;-77
2023/06/09 08:41:59;;;;;;;11.82;8.15;;;29.60;99.30;;;;;;5067222;28;20197;-75
2023/06/09 08:44:28;;;;;;;11.00;7.15;;;29.60;99.30;;;;;;5051403;28;20223;-75
2023/06/09 08:47:00;;;;;;;14.10;7.90;;;29.50;99.00;;;;;;5065842;28;20349;-76
2023/06/09 08:49:28;;;;;;;9.25;7.38;;;29.40;99.50;;;;;;5058303;28;20233;-75
2023/06/09 08:51:57;;;;;;;10.43;7.28;;;29.40;99.50;;;;;;5057663;28;20201;-76
2023/06/09 08:54:25;;;;;;;14.05;8.60;;;29.50;99.80;;;;;;5050688;28;20288;-77
2023/06/09 08:56:52;;;;;;;10.93;7.30;;;29.70;99.50;;;;;;5069467;28;20291;-77
2023/06/09 08:59:21;;;;;;;10.95;7.38;;;29.70;99.40;;;;;;5059430;28;20463;-76
2023/06/09 09:01:49;;;;;;;12.20;7.47;;;30.00;99.10;;;;;;5064772;28;20221;-76
2023/06/09 09:04:17;;;;;;;12.63;8.30;;;29.80;98.80;;;;;;5048974;28;20192;-76
2023/06/09 09:06:44;;;;;;;10.23;7.00;;;29.70;99.00;;;;;;5066298;28;20263;-75
2023/06/09 09:09:11;;;;;;;12.50;8.25;;;29.90;98.90;;;;;;5069069;28;20557;-75
2023/06/09 09:11:38;;;;;;;13.55;7.78;;;29.80;98.60;;;;;;5065236;28;20229;-76
2023/06/09 09:14:10;;;;;;;13.52;7.75;;;29.80;98.40;;;;;;5089200;28;20200;-76
2023/06/09 09:16:37;;;;;;;10.95;6.97;;;30.00;98.20;;;;;;5088312;28;20219;-76
2023/06/09 09:19:04;;;;;;;9.20;7.25;;;30.20;98.30;;;;;;5086164;28;20679;-75
2023/06/09 09:21:37;;;;;;;11.40;7.30;;;30.20;98.20;;;;;;5088219;28;20519;-76
2023/06/09 09:24:06;;;;;;;11.00;7.75;;;30.30;98.20;;;;;;5086335;28;20283;-75
2023/06/09 09:26:34;;;;;;;10.60;7.55;;;30.40;98.00;;;;;;5086086;28;20196;-76
2023/06/09 09:29:06;;;;;;;12.15;7.05;;;30.30;97.80;;;;;;5077781;28;20357;-76
2023/06/09 09:31:39;;;;;;;10.45;7.40;;;30.40;98.10;;;;;;5087272;28;20220;-77
2023/06/09 09:34:13;;;;;;;12.35;7.57;;;30.50;97.70;;;;;;5085432;28;20203;-78
2023/06/09 09:36:52;;;;;;;10.95;7.05;;;30.50;98.10;;;;;;5088272;28;20203;-75
2023/06/09 09:39:20;;;;;;;11.43;8.40;;;30.60;97.40;;;;;;5089464;28;20211;-75
2023/06/09 09:42:10;;;;;;;11.20;7.25;;;30.60;97.40;;;;;;5085985;28;20200;-78
2023/06/09 09:44:41;;;;;;;10.23;7.50;;;30.70;97.40;;;;;;5088090;28;20214;-76
2023/06/09 09:47:12;;;;;;;10.55;7.72;;;30.80;97.30;;;;;;5086420;28;20223;-75
2023/06/09 09:49:54;;;;;;;9.68;7.53;;;30.90;97.30;;;;;;5088545;28;20235;-76
2023/06/09 09:52:34;;;;;;;8.35;7.40;;;30.90;97.00;;;;;;5083323;28;20195;-75
2023/06/09 09:55:08;;;;;;;10.20;7.90;;;30.70;96.80;;;;;;5090023;28;20207;-76
2023/06/09 09:57:36;;;;;;;11.25;8.13;;;30.30;97.20;;;;;;5085068;28;20242;-75
2023/06/09 10:00:07;;;;;;;10.32;7.70;;;30.20;97.00;;;;;;5076749;28;20218;-75
2023/06/09 10:02:36;;;;;;;10.88;7.22;;;30.00;97.00;;;;;;5091485;28;20234;-74
2023/06/09 10:05:07;;;;;;;10.00;8.00;;;30.10;97.40;;;;;;5088825;28;20196;-76
2023/06/09 10:07:38;;;;;;;12.98;7.35;;;30.20;97.60;;;;;;5056876;28;20559;-76
2023/06/09 10:10:08;;;;;;;10.98;8.13;;;30.20;97.40;;;;;;5081900;28;20225;-75
2023/06/09 10:12:37;;;;;;;12.40;8.27;;;30.30;97.40;;;;;;5071997;28;20606;-76
2023/06/09 10:15:08;;;;;;;13.43;8.95;;;30.40;97.60;;;;;;5091201;28;20207;-75
2023/06/09 10:17:36;;;;;;;11.45;7.82;;;30.40;97.20;;;;;;5085408;28;20218;-75
2023/06/09 10:20:08;;;;;;;11.48;7.18;;;30.60;97.40;;;;;;5086242;28;20801;-75
2023/06/09 10:22:36;;;;;;;8.98;7.10;;;30.80;97.40;;;;;;5084267;28;20229;-78
2023/06/09 10:25:06;;;;;;;13.20;8.10;;;30.90;96.30;;;;;;5084122;28;20258;-75
2023/06/09 10:27:34;;;;;;;9.13;7.55;;;30.90;96.00;;;;;;5091174;28;20192;-79
2023/06/09 10:30:02;;;;;;;9.98;7.88;;;30.90;96.00;;;;;;5084327;28;20285;-75
2023/06/09 10:32:30;;;;;;;10.57;7.72;;;31.00;96.30;;;;;;5100843;27;20688;-76
2023/06/09 10:34:59;;;;;;;8.73;7.65;;;31.10;96.50;;;;;;5109487;27;20199;-77
2023/06/09 10:37:30;;;;;;;9.23;7.60;;;31.20;96.20;;;;;;5106377;27;20204;-75
2023/06/09 10:40:16;;;;;;;13.43;10.15;;;31.10;95.90;;;;;;5108611;28;20582;-76
2023/06/09 10:43:11;;;;;;;8.80;6.75;;;31.20;96.00;;;;;;5108610;27;20199;-79
2023/06/09 10:45:56;;;;;;;10.80;7.22;;;31.40;95.60;;;;;;5086793;28;20227;-75
2023/06/09 10:48:45;;;;;;;12.18;7.85;;;31.60;95.60;;;;;;5104148;28;20199;-75
2023/06/09 10:51:41;;;;;;;10.70;7.78;;;31.70;95.40;;;;;;5111945;27;20223;-76
2023/06/09 10:54:09;;;;;;;10.38;7.25;;;31.80;95.20;;;;;;5085916;28;20212;-76
2023/06/09 10:56:41;;;;;;;9.10;7.32;;;31.90;95.10;;;;;;5105758;27;20192;-75
2023/06/09 10:59:23;;;;;;;12.02;7.28;;;32.00;94.90;;;;;;5107443;27;20210;-77
2023/06/09 11:02:15;;;;;;;8.07;7.28;;;32.10;95.30;;;;;;5106342;27;20691;-75
2023/06/09 11:04:52;;;;;;;8.95;7.32;;;31.80;93.50;;;;;;5077892;28;20191;-77
2023/06/09 11:07:20;;;;;;;9.63;7.82;;;31.70;94.10;;;;;;5103965;27;20240;-75
2023/06/09 11:09:47;;;;;;;9.20;7.35;;;31.70;94.50;;;;;;5105571;28;20215;-78
2023/06/09 11:12:36;;;;;;;12.35;8.02;;;31.80;94.10;;;;;;5101884;28;20229;-76
2023/06/09 11:15:09;;;;;;;9.73;6.95;;;31.80;94.00;;;;;;5101735;27;20616;-77
2023/06/09 11:17:46;;;;;;;9.60;7.07;;;31.70;93.80;;;;;;5108730;27;20728;-78
2023/06/09 11:20:15;;;;;;;9.82;6.88;;;31.80;93.20;;;;;;5103020;27;20732;-76
2023/06/09 11:22:43;;;;;;;10.35;7.03;;;31.80;92.70;;;;;;5107054;28;20194;-75
2023/06/09 11:25:20;;;;;;;11.63;7.13;;;31.70;92.60;;;;;;5103994;27;20630;-77
2023/06/09 11:27:49;;;;;;;9.85;7.32;;;31.70;92.90;;;;;;5103879;28;20200;-76
2023/06/09 11:30:18;;;;;;;12.43;7.20;;;31.50;93.20;;;;;;5105315;28;20576;-75
2023/06/09 11:32:56;;;;;;;7.47;6.50;;;31.30;92.70;;;;;;5101440;28;20670;-76
2023/06/09 11:35:23;;;;;;;9.70;7.28;;;31.10;92.90;;;;;;5100955;28;20198;-76
2023/06/09 11:37:54;;;;;;;9.73;6.40;;;30.90;91.70;;;;;;5106888;28;20195;-77
2023/06/09 11:40:22;;;;;;;8.13;6.57;;;30.90;91.40;;;;;;5108930;28;20207;-76
2023/06/09 11:42:51;;;;;;;11.65;6.53;;;30.90;91.10;;;;;;5107177;28;20651;-78
2023/06/09 11:45:18;;;;;;;8.68;6.30;;;30.90;91.10;;;;;;5082222;28;20203;-76
2023/06/09 11:47:46;;;;;;;8.57;6.20;;;31.00;91.10;;;;;;5105555;28;20211;-75
2023/06/09 11:50:15;;;;;;;9.10;5.93;;;31.10;91.10;;;;;;5105425;28;20226;-75
2023/06/09 11:52:44;;;;;;;15.05;6.65;;;31.00;91.10;;;;;;5087341;28;20252;-74
2023/06/09 11:55:14;;;;;;;8.98;6.10;;;31.10;90.80;;;;;;5102726;28;20264;-75
2023/06/09 11:57:42;;;;;;;11.05;6.22;;;31.20;90.90;;;;;;5096284;27;20201;-75
2023/06/09 12:00:14;;;;;;;10.60;6.32;;;31.30;90.60;;;;;;5110182;28;20199;-76
2023/06/09 12:02:47;;;;;;;11.85;6.53;;;31.40;90.40;;;;;;5113034;28;20298;-75
2023/06/09 12:05:16;;;;;;;8.40;6.78;;;31.60;91.00;;;;;;5109361;27;20658;-77
2023/06/09 12:07:44;;;;;;;8.80;6.30;;;31.60;90.50;;;;;;5111938;27;20195;-75
2023/06/09 12:10:19;;;;;;;7.88;6.20;;;31.60;90.70;;;;;;5094571;28;20317;-75
2023/06/09 12:12:48;;;;;;;7.32;6.60;;;31.80;90.80;;;;;;5108389;27;20695;-75
2023/06/09 12:15:17;;;;;;;7.22;6.18;;;31.90;90.60;;;;;;5108622;28;20191;-76
2023/06/09 12:17:48;;;;;;;8.57;6.25;;;32.10;90.50;;;;;;5108022;27;20238;-77
2023/06/09 12:20:33;;;;;;;8.60;6.55;;;32.10;89.20;;;;;;5089923;28;20202;-76
2023/06/09 12:23:12;;;;;;;10.35;6.45;;;32.10;87.90;;;;;;5086966;28;20201;-75
2023/06/09 12:25:41;;;;;;;7.65;6.35;;;31.80;89.80;;;;;;5110129;27;20196;-77
2023/06/09 12:28:27;;;;;;;11.05;6.72;;;31.80;90.40;;;;;;5108709;28;20203;-75
2023/06/09 12:31:08;;;;;;;8.23;6.45;;;31.90;90.40;;;;;;5103771;27;20227;-75
2023/06/09 12:33:36;;;;;;;9.75;6.90;;;31.80;90.20;;;;;;5111369;27;20199;-76
2023/06/09 12:36:05;;;;;;;19.38;7.97;;;31.50;89.70;;;;;;5112142;27;20565;-74
2023/06/09 12:38:39;;;;;;;8.65;6.57;;;31.50;89.10;;;;;;5110262;27;20207;-76
2023/06/09 12:41:09;;;;;;;8.18;6.10;;;31.40;89.90;;;;;;5089924;28;20263;-76
2023/06/09 12:43:54;;;;;;;8.68;6.45;;;31.40;90.40;;;;;;5125223;27;20191;-77
2023/06/09 12:46:38;;;;;;;9.65;6.45;;;31.60;90.00;;;;;;5109345;27;20220;-75
2023/06/09 12:49:07;;;;;;;7.95;6.45;;;31.60;90.10;;;;;;5108115;27;20199;-76
2023/06/09 12:51:40;;;;;;;5.63;4.90;;;31.60;89.40;;;;;;5115030;27;20253;-75